Flight Track Log - Related Links

Times and Time Zones

All times are in EDT time to prevent confusion due to time zone crossing. See the AIE860 flight status page for this flight to view local times or setup timezone preferences in your user account.

Time Position Orientation Groundspeed Altitude Reporting Facility
EDT Latitude Longitude Course Direction KTS MPH feet Rate Location/Type
Mon 12:17:00 PM 60.3773 -72.9852 204° Southwest  Level FlightAware Approximate
Mon 12:18:00 PM 60.3171 -73.0386 204° Southwest  Level FlightAware Approximate
Mon 12:19:00 PM 60.2569 -73.0915 203° Southwest  Level FlightAware Approximate
Mon 12:20:00 PM 60.1964 -73.1425 203° Southwest  Level FlightAware Approximate
Mon 12:21:00 PM 60.1357 -73.1934 203° Southwest  Level FlightAware Approximate
Mon 12:22:00 PM 60.0751 -73.2440 203° Southwest  Level FlightAware Approximate
Mon 12:23:00 PM 60.0145 -73.2944 203° Southwest  Level FlightAware Approximate
Mon 12:24:00 PM 59.9538 -73.3447 203° Southwest  Level FlightAware Approximate
Mon 12:25:00 PM 59.8931 -73.3948 202° Southwest  Level FlightAware Approximate
Mon 12:26:00 PM 59.8324 -73.4446 202° Southwest  Level FlightAware Approximate
Mon 12:27:00 PM 59.7717 -73.4943 202° Southwest  Level FlightAware Approximate
Mon 12:28:00 PM 59.7109 -73.5439 202° Southwest  Level FlightAware Approximate
Mon 12:29:00 PM 59.6502 -73.5932 202° Southwest  Level FlightAware Approximate
Mon 12:29:37 PM 60.0333 -73.2333 202° Southwest 240 276 24,000  Level Montreal Center
Mon 12:30:00 PM 59.5894 -73.6424 202° Southwest  Level FlightAware Approximate
Mon 12:30:37 PM 59.9667 -73.2667 194° South 250 288 24,000  Level Montreal Center
Mon 12:31:00 PM 59.5286 -73.6914 202° Southwest  Level FlightAware Approximate
Mon 12:31:37 PM 59.9000 -73.3500 212° Southwest 240 276 24,000  Level Montreal Center
Mon 12:32:00 PM 59.4678 -73.7402 202° Southwest  Level FlightAware Approximate
Mon 12:32:37 PM 59.8333 -73.3833 194° South 260 299 24,000  Level Montreal Center
Mon 12:33:00 PM 59.4070 -73.7888 202° Southwest  Level FlightAware Approximate
Mon 12:33:37 PM 59.7667 -73.4500 207° Southwest 250 288 24,000  Level Montreal Center
Mon 12:34:00 PM 59.3461 -73.8373 202° Southwest  Level FlightAware Approximate
Mon 12:34:37 PM 59.7000 -73.5000 201° Southwest 250 288 24,000  Level Montreal Center
Mon 12:35:00 PM 59.2853 -73.8856 202° Southwest  Level FlightAware Approximate
Mon 12:35:37 PM 59.6500 -73.5667 214° Southwest 250 288 24,000  Level Montreal Center
Mon 12:36:37 PM 59.6000 -73.6000 199° South 240 276 24,000  Level Montreal Center
Mon 12:37:37 PM 59.5333 -73.6333 194° South 250 288 24,000  Level Montreal Center
Mon 12:38:37 PM 59.4667 -73.7167 212° Southwest 250 288 24,000  Level Montreal Center
Mon 12:39:37 PM 59.4000 -73.7500 194° South 250 288 24,000  Level Montreal Center
Mon 12:40:37 PM 59.3333 -73.8167 207° Southwest 250 288 24,000  Level Montreal Center
Mon 12:41:37 PM 59.2833 -73.8500 199° South 250 288 24,000  Level Montreal Center
Mon 12:42:37 PM 59.2167 -73.9000 201° Southwest 240 276 24,000  Level Montreal Center
Mon 12:43:37 PM 59.1500 -73.9667 207° Southwest 250 288 24,000  Level Montreal Center
Mon 12:44:37 PM 59.0833 -74.0000 194° South 240 276 24,000  Level Montreal Center
Mon 12:45:37 PM 59.0167 -74.0667 207° Southwest 240 276 24,000  Level Montreal Center
Mon 12:46:37 PM 58.9500 -74.1000 194° South 240 276 24,000  Level Montreal Center
Mon 12:47:37 PM 58.9000 -74.1667 215° Southwest 250 288 24,000  Level Montreal Center
Mon 12:48:37 PM 58.8333 -74.2000 195° South 240 276 24,000  Level Montreal Center
Mon 12:49:37 PM 58.7667 -74.2667 207° Southwest 240 276 24,000  Level Montreal Center
Mon 12:50:37 PM 58.7000 -74.3167 201° Southwest 240 276 24,000  Level Montreal Center
Mon 12:51:37 PM 58.6333 -74.3500 195° South 240 276 24,000  Level Montreal Center
Mon 12:52:37 PM 58.5833 -74.4167 215° Southwest 240 276 24,000  Level Montreal Center
Mon 12:53:37 PM 58.5167 -74.4500 195° South 240 276 24,000  Level Montreal Center
Mon 12:55:00 PM 58.4323 -74.5146 202° Southwest  Level FlightAware Approximate
Mon 01:02:00 PM 58.0051 -74.8366 202° Southwest  Level FlightAware Approximate
Mon 01:03:00 PM 57.9440 -74.8820 202° Southwest  Level FlightAware Approximate
Mon 01:04:00 PM 57.8829 -74.9272 201° Southwest  Level FlightAware Approximate
Mon 01:05:00 PM 57.8217 -74.9723 201° Southwest  Level FlightAware Approximate
Mon 01:06:00 PM 57.7606 -75.0172 201° Southwest  Level FlightAware Approximate
Mon 01:07:00 PM 57.6994 -75.0620 201° Southwest  Level FlightAware Approximate
Mon 01:08:00 PM 57.6382 -75.1066 201° Southwest  Level FlightAware Approximate
Mon 01:09:00 PM 57.5771 -75.1511 201° Southwest  Level FlightAware Approximate
Mon 01:10:00 PM 57.5159 -75.1954 201° Southwest  Level FlightAware Approximate
Mon 01:11:00 PM 57.4546 -75.2396 201° Southwest  Level FlightAware Approximate
Mon 01:12:00 PM 57.3934 -75.2836 201° Southwest  Level FlightAware Approximate
Mon 01:13:00 PM 57.3321 -75.3275 201° Southwest  Level FlightAware Approximate
Mon 01:14:00 PM 57.2709 -75.3712 201° Southwest  Level FlightAware Approximate
Mon 01:15:00 PM 57.2096 -75.4148 201° Southwest  Level FlightAware Approximate
Mon 01:16:00 PM 57.1483 -75.4582 201° Southwest  Level FlightAware Approximate
Mon 01:17:00 PM 57.0869 -75.5015 201° Southwest  Level FlightAware Approximate
Mon 01:18:00 PM 57.0256 -75.5447 201° Southwest  Level FlightAware Approximate
Mon 01:19:00 PM 56.9643 -75.5877 201° Southwest  Level FlightAware Approximate
Mon 01:20:00 PM 56.9029 -75.6305 201° Southwest  Level FlightAware Approximate
Mon 01:21:00 PM 56.8415 -75.6733 201° Southwest  Level FlightAware Approximate
Mon 01:22:00 PM 56.7801 -75.7159 201° Southwest  Level FlightAware Approximate
Mon 01:23:00 PM 56.7187 -75.7583 201° Southwest  Level FlightAware Approximate
Mon 01:24:00 PM 56.6573 -75.8006 201° Southwest  Level FlightAware Approximate
Mon 01:25:00 PM 56.5959 -75.8428 201° Southwest  Level FlightAware Approximate
Mon 01:26:00 PM 56.5344 -75.8848 201° Southwest  Level FlightAware Approximate
Mon 01:27:00 PM 56.4730 -75.9267 201° Southwest  Level FlightAware Approximate
Mon 01:28:00 PM 56.4115 -75.9685 201° Southwest  Level FlightAware Approximate
Mon 01:29:00 PM 56.3500 -76.0101 201° Southwest  Level FlightAware Approximate
Mon 01:30:00 PM 56.2885 -76.0516 201° Southwest  Level FlightAware Approximate
Mon 01:31:00 PM 56.2270 -76.0930 200° South  Level FlightAware Approximate
Mon 01:31:50 PM 56.2000 -76.1167 200° South 260 299 24,000  Level Montreal Center
Mon 01:32:00 PM 56.1655 -76.1342 200° South  Level FlightAware Approximate
Mon 01:32:50 PM 56.1333 -76.1500 196° South 230 265 24,000  Level Montreal Center
Mon 01:33:00 PM 56.1039 -76.1753 200° South  Level FlightAware Approximate
Mon 01:33:50 PM 56.0833 -76.1667 191° South 230 265 24,000  Level Montreal Center
Mon 01:34:00 PM 56.0423 -76.2163 200° South  Level FlightAware Approximate
Mon 01:34:50 PM 56.0167 -76.2333 209° Southwest 220 253 24,000  Level Montreal Center
Mon 01:35:00 PM 55.9809 -76.2564 200° South  Level FlightAware Approximate
Mon 01:35:50 PM 55.9667 -76.2667 200° South 230 265 24,000  Level Montreal Center
Mon 01:36:00 PM 55.9191 -76.2962 200° South  Level FlightAware Approximate
Mon 01:36:50 PM 55.9000 -76.3000 196° South 230 265 24,000  Level Montreal Center
Mon 01:37:00 PM 55.8573 -76.3359 200° South  Level FlightAware Approximate
Mon 01:37:50 PM 55.8500 -76.3500 209° Southwest 230 265 24,000  Level Montreal Center
Mon 01:38:50 PM 55.7833 -76.3833 196° South 230 265 24,000  Level Montreal Center
Mon 01:39:50 PM 55.7167 -76.4167 196° South 230 265 24,000  Level Montreal Center
Mon 01:40:50 PM 55.6667 -76.4667 209° Southwest 230 265 24,000  Level Montreal Center
Mon 01:41:50 PM 55.6000 -76.5000 196° South 230 265 24,000  Level Montreal Center
Mon 01:42:50 PM 55.5500 -76.5333 201° Southwest 230 265 24,000  Level Montreal Center
Mon 01:43:50 PM 55.4833 -76.5833 203° Southwest 230 265 24,000  Level Montreal Center
Mon 01:44:50 PM 55.4167 -76.6167 196° South 230 265 24,000  Level Montreal Center
Mon 01:45:50 PM 55.3667 -76.6500 201° Southwest 230 265 24,000  Level Montreal Center
Mon 01:46:50 PM 55.2833 -76.7000 199° South 230 265 24,000  Level Montreal Center
Mon 01:47:50 PM 55.2333 -76.7333 201° Southwest 230 265 24,000  Level Montreal Center
Mon 01:48:50 PM 55.1667 -76.7500 188° South 230 265 24,000  Level Montreal Center
Mon 01:49:50 PM 55.1167 -76.8167 217° Southwest 230 265 24,000 -400 Level Montreal Center
Mon 01:50:50 PM 55.0500 -76.8500 196° South 240 276 23,200 -1,000 Descending Montreal Center
Mon 01:51:50 PM 54.9833 -76.8667 188° South 260 299 22,000 -1,150 Descending Montreal Center
Mon 01:52:50 PM 54.9167 -76.9333 210° Southwest 270 311 20,900 -1,150 Descending Montreal Center
Mon 01:53:50 PM 54.8500 -76.9833 203° Southwest 260 299 19,700 -1,250 Descending Montreal Center
Mon 01:54:50 PM 54.7667 -77.0167 193° South 270 311 18,400 -1,200 Descending Montreal Center
Mon 01:55:50 PM 54.7000 -77.0667 203° Southwest 270 311 17,300 -1,150 Descending Montreal Center
Mon 01:56:50 PM 54.6333 -77.1000 196° South 270 311 16,100 -1,200 Descending Montreal Center
Mon 01:57:50 PM 54.5667 -77.1500 204° Southwest 270 311 14,900 -1,150 Descending Montreal Center
Mon 01:58:50 PM 54.5000 -77.1833 196° South 260 299 13,800 -1,100 Descending Montreal Center
Mon 01:59:50 PM 54.4333 -77.2333 204° Southwest 250 288 12,700 -1,050 Descending Montreal Center
Mon 02:00:50 PM 54.3667 -77.2667 196° South 240 276 11,700 -950 Descending Montreal Center
Mon 02:01:50 PM 54.3167 -77.3167 210° Southwest 230 265 10,800 -950 Descending Montreal Center
Mon 02:02:50 PM 54.2667 -77.3500 201° Southwest 220 253 9,800 -900 Descending Montreal Center
Mon 02:03:50 PM 54.1833 -77.3667 187° South 210 242 9,000 -850 Descending Montreal Center
Mon 02:04:50 PM 54.1333 -77.4000 201° Southwest 210 242 8,100 -900 Descending Montreal Center
Mon 02:05:50 PM 54.0833 -77.4333 201° Southwest 210 242 7,200 -900 Descending Montreal Center
Mon 02:06:50 PM 54.0333 -77.4833 210° Southwest 210 242 6,300 -950 Descending Montreal Center
Mon 02:07:50 PM 53.9667 -77.5167 196° South 210 242 5,300 -1,000 Descending Montreal Center
Mon 02:08:50 PM 53.9167 -77.5333 191° South 220 253 4,300 -1,000 Descending Montreal Center
Mon 02:09:50 PM 53.8500 -77.5833 204° Southwest 220 253 3,300 -1,000 Descending Montreal Center
Mon 02:10:50 PM 53.8000 -77.6167 201° Southwest 210 242 2,300 -1,000 Descending Montreal Center
Mon 02:12:00 PM 53.7266 -77.6343 204° Southwest  Level FlightAware Approximate
Mon 02:19:00 PM 53.6167 -77.7000 197° South  Level FlightAware Approximate
Mon 02:20:00 PM 53.6253 -77.7042 197° South  Level Estimated
Mon 02:21:00 PM 53.6253 -77.7042 197° South  Level Estimated
Mon 02:22:00 PM 53.6253 -77.7042 197° South  Level Estimated

Login

Don't have an account? Register now (free) for customized features, flight alerts, and more!